Time;durP1;ratioP1;P1;durP2;ratioP2;P2;SDS_P1;SDS_P2;PMS_P1;PMS_P2;Temp;Humidity;BMP_temperature;BMP_pressure;BME280_temperature;BME280_humidity;BME280_pressure;Samples;Min_cycle;Max_cycle;Signal;HPM_P1;HPM_P2
2022/12/02 00:01:47;;;;;;;50.38;20.63;;;5.30;99.90;;;;;;5052231;28;20063;-60
2022/12/02 00:04:22;;;;;;;58.33;22.05;;;5.30;99.90;;;;;;5052805;28;20025;-60
2022/12/02 00:06:50;;;;;;;54.17;21.33;;;5.20;99.90;;;;;;5052968;28;20029;-60
2022/12/02 00:09:35;;;;;;;54.67;21.75;;;5.20;99.90;;;;;;5051897;28;20017;-60
2022/12/02 00:12:15;;;;;;;55.22;21.88;;;5.20;99.90;;;;;;5060930;28;20119;-60
2022/12/02 00:14:40;;;;;;;57.58;23.85;;;5.20;99.90;;;;;;5072915;28;20040;-60
2022/12/02 00:17:06;;;;;;;55.22;21.55;;;5.20;99.90;;;;;;5072239;28;20017;-61
2022/12/02 00:19:32;;;;;;;57.58;24.02;;;5.20;99.90;;;;;;5072591;28;20021;-62
2022/12/02 00:21:57;;;;;;;53.63;23.33;;;5.20;99.90;;;;;;5071353;28;20377;-60
2022/12/02 00:24:23;;;;;;;49.40;21.63;;;5.20;99.90;;;;;;5071634;28;20021;-61
2022/12/02 00:26:48;;;;;;;64.38;23.90;;;5.20;99.90;;;;;;5069218;28;20103;-58
2022/12/02 00:29:14;;;;;;;51.90;21.48;;;5.20;99.90;;;;;;5072513;28;20021;-60
2022/12/02 00:31:40;;;;;;;52.60;20.40;;;5.20;99.90;;;;;;5071667;28;20522;-60
2022/12/02 00:34:05;;;;;;;56.03;21.80;;;5.20;99.90;;;;;;5072395;28;20035;-60
2022/12/02 00:36:31;;;;;;;58.20;21.92;;;5.10;99.90;;;;;;5070495;28;20021;-60
2022/12/02 00:38:57;;;;;;;56.20;22.50;;;5.10;99.90;;;;;;5072605;28;20031;-61
2022/12/02 00:41:23;;;;;;;50.97;21.60;;;5.10;99.90;;;;;;5072203;28;20021;-60
2022/12/02 00:46:34;;;;;;;62.28;22.05;;;5.10;99.90;;;;;;5072230;28;20055;-60
2022/12/02 00:49:06;;;;;;;58.05;21.33;;;5.10;99.90;;;;;;5072335;28;20140;-60
2022/12/02 00:51:33;;;;;;;52.88;23.67;;;5.10;99.90;;;;;;5071516;28;20032;-60
2022/12/02 00:53:59;;;;;;;55.85;21.23;;;5.10;99.90;;;;;;5072438;28;20115;-61
2022/12/02 00:56:24;;;;;;;57.38;23.38;;;5.10;99.90;;;;;;5072098;28;20104;-60
2022/12/02 00:58:50;;;;;;;53.05;22.65;;;5.10;99.90;;;;;;5071810;28;20471;-60
2022/12/02 01:01:16;;;;;;;61.70;23.17;;;5.10;99.90;;;;;;5072248;28;20093;-60
2022/12/02 01:03:41;;;;;;;59.95;21.92;;;5.00;99.90;;;;;;5072184;28;20021;-60
2022/12/02 01:06:07;;;;;;;51.65;21.42;;;5.00;99.90;;;;;;5071738;28;20027;-61
2022/12/02 01:08:33;;;;;;;51.85;21.60;;;5.00;99.90;;;;;;5072159;28;20020;-60
2022/12/02 01:10:58;;;;;;;56.55;21.23;;;5.00;99.90;;;;;;5072223;28;20096;-59
2022/12/02 01:13:25;;;;;;;53.83;22.63;;;4.90;99.90;;;;;;5071009;28;20069;-59
2022/12/02 01:15:51;;;;;;;55.58;21.48;;;5.00;99.90;;;;;;5072262;28;20094;-60
2022/12/02 01:18:17;;;;;;;59.25;22.10;;;5.00;99.90;;;;;;5071957;28;20469;-60
2022/12/02 01:20:43;;;;;;;51.63;20.02;;;5.00;99.90;;;;;;5071426;28;20508;-60
2022/12/02 01:23:09;;;;;;;59.08;21.70;;;5.00;99.90;;;;;;5071945;28;20054;-61
2022/12/02 01:25:34;;;;;;;55.90;21.90;;;5.00;99.90;;;;;;5071289;28;20028;-60
2022/12/02 01:28:00;;;;;;;52.75;20.65;;;5.00;99.90;;;;;;5071966;28;20021;-59
2022/12/02 01:30:26;;;;;;;49.55;21.33;;;5.00;99.90;;;;;;5071748;28;20059;-60
2022/12/02 01:32:51;;;;;;;53.65;19.77;;;5.00;99.90;;;;;;5071302;28;20066;-61
2022/12/02 01:35:18;;;;;;;58.97;22.50;;;5.00;99.90;;;;;;5070562;28;20032;-60
2022/12/02 01:37:44;;;;;;;56.50;22.20;;;5.00;99.90;;;;;;5073502;28;20042;-59
2022/12/02 01:40:10;;;;;;;52.80;21.60;;;5.00;99.90;;;;;;5074811;28;20468;-60
2022/12/02 01:42:37;;;;;;;51.22;20.33;;;4.90;99.90;;;;;;5072295;28;20054;-60
2022/12/02 01:45:03;;;;;;;52.58;22.02;;;4.90;99.90;;;;;;5085172;28;20031;-61
2022/12/02 01:47:29;;;;;;;54.00;19.42;;;4.80;99.90;;;;;;5094590;28;20541;-61
2022/12/02 01:49:55;;;;;;;50.38;18.60;;;4.80;99.90;;;;;;5094523;28;20036;-59
2022/12/02 01:52:21;;;;;;;43.15;18.35;;;4.80;99.90;;;;;;5094925;28;20025;-61
2022/12/02 01:54:47;;;;;;;47.55;18.85;;;4.70;99.90;;;;;;5092440;28;20103;-60
2022/12/02 01:57:14;;;;;;;50.92;19.15;;;4.70;99.90;;;;;;5095456;28;20051;-61
2022/12/02 01:59:41;;;;;;;45.55;17.67;;;4.70;99.90;;;;;;5095684;28;20078;-60
2022/12/02 02:02:30;;;;;;;46.10;17.55;;;4.70;99.90;;;;;;5092358;28;20081;-61
2022/12/02 02:05:00;;;;;;;49.78;18.10;;;4.70;99.90;;;;;;5093528;28;20488;-61
2022/12/02 02:07:26;;;;;;;44.60;17.25;;;4.70;99.90;;;;;;5094898;28;20054;-63
2022/12/02 02:09:52;;;;;;;53.40;17.90;;;4.70;99.90;;;;;;5094845;28;20426;-63
2022/12/02 02:12:18;;;;;;;46.45;17.30;;;4.70;99.90;;;;;;5094586;28;20492;-60
2022/12/02 02:14:44;;;;;;;46.20;17.55;;;4.60;99.90;;;;;;5093234;28;20468;-59
2022/12/02 02:17:10;;;;;;;41.42;15.73;;;4.60;99.90;;;;;;5093438;28;20070;-61
2022/12/02 02:19:35;;;;;;;48.60;16.73;;;4.60;99.90;;;;;;5093521;28;20026;-61
2022/12/02 02:22:05;;;;;;;43.75;16.55;;;4.50;99.90;;;;;;5094538;28;20020;-61
2022/12/02 02:24:30;;;;;;;42.33;16.48;;;4.60;99.90;;;;;;5090111;28;20073;-62
2022/12/02 02:26:56;;;;;;;41.92;17.38;;;4.60;99.90;;;;;;5094995;28;20110;-61
2022/12/02 02:29:21;;;;;;;47.63;17.33;;;4.60;99.90;;;;;;5077370;28;20492;-62
2022/12/02 02:31:47;;;;;;;40.00;17.30;;;4.60;99.90;;;;;;5091605;28;20032;-60
2022/12/02 02:34:13;;;;;;;42.85;16.52;;;4.60;99.90;;;;;;5089261;28;20450;-60
2022/12/02 02:36:38;;;;;;;46.03;16.67;;;4.60;99.90;;;;;;5089930;28;20055;-60
2022/12/02 02:39:04;;;;;;;43.42;16.33;;;4.60;99.90;;;;;;5094979;28;20051;-61
2022/12/02 02:41:30;;;;;;;42.08;15.48;;;4.60;99.90;;;;;;5092988;28;20017;-62
2022/12/02 02:43:55;;;;;;;48.85;17.55;;;4.60;99.90;;;;;;5091039;28;20056;-63
2022/12/02 02:46:21;;;;;;;48.10;19.40;;;4.60;99.90;;;;;;5094326;28;20065;-62
2022/12/02 02:48:48;;;;;;;47.92;17.27;;;4.60;99.90;;;;;;5094504;28;20074;-62
2022/12/02 02:51:15;;;;;;;40.17;16.08;;;4.60;99.90;;;;;;5088398;28;20558;-61
2022/12/02 02:53:42;;;;;;;46.92;16.83;;;4.60;99.90;;;;;;5091819;28;20111;-61
2022/12/02 02:56:09;;;;;;;41.90;15.75;;;4.60;99.90;;;;;;5054077;28;20059;-61
2022/12/02 02:58:35;;;;;;;42.03;16.58;;;4.60;99.90;;;;;;5053072;28;20033;-61
2022/12/02 03:01:30;;;;;;;44.53;16.65;;;4.60;99.90;;;;;;5092848;28;20016;-62
2022/12/02 03:04:02;;;;;;;38.33;15.02;;;4.60;99.90;;;;;;5091904;28;20033;-60
2022/12/02 03:06:30;;;;;;;49.05;17.15;;;4.60;99.90;;;;;;5094085;28;20107;-61
2022/12/02 03:08:57;;;;;;;41.42;16.77;;;4.60;99.90;;;;;;5094155;28;20023;-61
2022/12/02 03:11:24;;;;;;;40.83;16.17;;;4.50;99.90;;;;;;5093131;28;20069;-62
2022/12/02 03:13:50;;;;;;;49.08;17.05;;;4.50;99.90;;;;;;5094017;28;20047;-62
2022/12/02 03:16:20;;;;;;;38.70;15.40;;;4.50;99.90;;;;;;5091887;28;20028;-61
2022/12/02 03:18:46;;;;;;;44.03;17.23;;;4.50;99.90;;;;;;5093264;28;20016;-61
2022/12/02 03:21:14;;;;;;;50.67;17.92;;;4.50;99.90;;;;;;5093911;28;20487;-61
2022/12/02 03:23:40;;;;;;;41.92;16.98;;;4.50;99.90;;;;;;5089408;28;20071;-60
2022/12/02 03:26:06;;;;;;;47.80;17.95;;;4.50;99.90;;;;;;5091747;28;20074;-60
2022/12/02 03:28:33;;;;;;;49.67;18.75;;;4.50;99.90;;;;;;5090991;28;20080;-60
2022/12/02 03:30:58;;;;;;;47.92;17.40;;;4.50;99.90;;;;;;5092157;28;20492;-60
2022/12/02 03:33:24;;;;;;;47.58;18.10;;;4.50;99.90;;;;;;5092399;28;20032;-60
2022/12/02 03:35:50;;;;;;;50.28;17.52;;;4.50;99.90;;;;;;5091868;28;20067;-60
2022/12/02 03:38:16;;;;;;;47.25;16.88;;;4.50;99.90;;;;;;5093263;28;20413;-61
2022/12/02 03:40:42;;;;;;;41.75;16.60;;;4.50;99.90;;;;;;5091155;28;20026;-60
2022/12/02 03:43:08;;;;;;;36.13;15.15;;;4.40;99.90;;;;;;5089361;28;20016;-60
2022/12/02 03:45:34;;;;;;;35.42;14.00;;;4.40;99.90;;;;;;5089577;28;20028;-59
2022/12/02 03:48:01;;;;;;;37.45;13.45;;;4.40;99.90;;;;;;5092706;28;20020;-58
2022/12/02 03:50:27;;;;;;;35.05;14.48;;;4.40;99.90;;;;;;5092863;28;20024;-61
2022/12/02 03:52:53;;;;;;;32.40;13.57;;;4.40;99.90;;;;;;5093292;28;20392;-60
2022/12/02 03:55:19;;;;;;;34.67;14.07;;;4.40;99.90;;;;;;5089041;28;20428;-59
2022/12/02 03:57:45;;;;;;;32.53;12.90;;;4.30;99.90;;;;;;5091999;28;20115;-60
2022/12/02 04:00:12;;;;;;;34.72;14.07;;;4.30;99.90;;;;;;5092692;28;20047;-61
2022/12/02 04:02:37;;;;;;;33.45;14.10;;;4.30;99.90;;;;;;5092077;28;20384;-60
2022/12/02 04:05:03;;;;;;;37.15;13.45;;;4.30;99.90;;;;;;5090947;28;20499;-61
2022/12/02 04:07:29;;;;;;;32.88;13.70;;;4.30;99.90;;;;;;5092044;28;20016;-60
2022/12/02 04:09:54;;;;;;;31.88;13.55;;;4.30;99.90;;;;;;5092830;28;20103;-59
2022/12/02 04:12:20;;;;;;;35.45;13.52;;;4.30;99.90;;;;;;5091818;28;20389;-60
2022/12/02 04:14:46;;;;;;;28.52;13.05;;;4.30;99.90;;;;;;5088565;28;20036;-60
2022/12/02 04:17:11;;;;;;;34.90;12.77;;;4.20;99.90;;;;;;5089497;28;20059;-59
2022/12/02 04:19:37;;;;;;;30.13;13.13;;;4.20;99.90;;;;;;5092281;28;20103;-60
2022/12/02 04:22:02;;;;;;;37.38;13.10;;;4.20;99.90;;;;;;5090795;28;20020;-61
2022/12/02 04:24:28;;;;;;;33.47;11.57;;;4.30;99.90;;;;;;5089833;28;20023;-59
2022/12/02 04:26:54;;;;;;;28.40;11.32;;;4.20;99.90;;;;;;5092726;28;20084;-58
2022/12/02 04:29:20;;;;;;;35.00;13.50;;;4.30;99.90;;;;;;5091840;28;20025;-59
2022/12/02 04:31:46;;;;;;;30.50;13.52;;;4.30;99.90;;;;;;5091456;28;20496;-60
2022/12/02 04:34:11;;;;;;;31.10;11.52;;;4.30;99.90;;;;;;5092299;28;20036;-60
2022/12/02 04:36:37;;;;;;;31.00;12.07;;;4.30;99.90;;;;;;5086835;28;20103;-58
2022/12/02 04:39:03;;;;;;;30.25;11.95;;;4.30;99.90;;;;;;5092480;28;20572;-59
2022/12/02 04:41:29;;;;;;;31.83;12.82;;;4.30;99.90;;;;;;5091312;28;20046;-59
2022/12/02 04:43:54;;;;;;;28.73;12.63;;;4.30;99.90;;;;;;5091764;28;20361;-59
2022/12/02 04:46:20;;;;;;;29.33;11.93;;;4.30;99.90;;;;;;5087411;28;20058;-59
2022/12/02 04:48:46;;;;;;;28.60;11.85;;;4.30;99.90;;;;;;5091090;28;20028;-58
2022/12/02 04:51:11;;;;;;;31.00;11.48;;;4.30;99.90;;;;;;5091921;28;20028;-60
2022/12/02 04:53:37;;;;;;;27.35;12.20;;;4.30;99.90;;;;;;5090939;28;20035;-60
2022/12/02 04:56:02;;;;;;;34.17;12.27;;;4.30;99.90;;;;;;5089608;28;20089;-60
2022/12/02 04:58:28;;;;;;;35.58;12.85;;;4.30;99.90;;;;;;5091459;28;20034;-60
2022/12/02 05:00:54;;;;;;;36.70;13.48;;;4.30;99.90;;;;;;5090827;28;20066;-59
2022/12/02 05:03:19;;;;;;;28.02;11.50;;;4.20;99.90;;;;;;5091989;28;20020;-61
2022/12/02 05:05:45;;;;;;;35.55;13.65;;;4.20;99.90;;;;;;5090178;28;20032;-59
2022/12/02 05:08:10;;;;;;;31.13;12.25;;;4.20;99.90;;;;;;5092659;28;20114;-60
2022/12/02 05:10:36;;;;;;;34.67;14.00;;;4.10;99.90;;;;;;5086368;28;20535;-60
2022/12/02 05:13:02;;;;;;;34.85;13.05;;;4.10;99.90;;;;;;5095508;28;20400;-61
2022/12/02 05:15:27;;;;;;;34.25;13.90;;;4.10;99.90;;;;;;5091931;28;20102;-61
2022/12/02 05:17:53;;;;;;;32.47;13.30;;;4.10;99.90;;;;;;5095445;28;20036;-61
2022/12/02 05:20:18;;;;;;;38.13;14.73;;;4.10;99.90;;;;;;5094416;28;20111;-60
2022/12/02 05:22:44;;;;;;;34.85;13.38;;;4.00;99.90;;;;;;5095984;28;20020;-61
2022/12/02 05:25:10;;;;;;;39.38;13.75;;;4.00;99.90;;;;;;5092621;28;20421;-61
2022/12/02 05:27:36;;;;;;;34.25;14.15;;;3.90;99.90;;;;;;5095774;28;20020;-60
2022/12/02 05:30:03;;;;;;;38.78;14.00;;;3.90;99.90;;;;;;5095944;28;20031;-61
2022/12/02 05:32:29;;;;;;;42.58;14.38;;;3.90;99.90;;;;;;5094723;28;20089;-61
2022/12/02 05:34:54;;;;;;;32.55;12.50;;;3.80;99.90;;;;;;5094225;28;20464;-59
2022/12/02 05:37:20;;;;;;;44.78;15.70;;;3.90;99.90;;;;;;5095501;28;20036;-59
2022/12/02 05:39:45;;;;;;;36.85;14.73;;;3.90;99.90;;;;;;5095082;28;20106;-60
2022/12/02 05:42:13;;;;;;;40.53;15.25;;;3.90;99.90;;;;;;5094154;28;20157;-61
2022/12/02 05:44:39;;;;;;;34.78;14.38;;;3.90;99.90;;;;;;5095351;28;20016;-60
2022/12/02 05:47:09;;;;;;;33.17;14.85;;;3.80;99.90;;;;;;5091012;28;20051;-60
2022/12/02 05:49:36;;;;;;;41.05;16.25;;;3.80;99.90;;;;;;5094583;28;20032;-61
2022/12/02 05:52:14;;;;;;;34.47;14.88;;;3.80;99.90;;;;;;5064311;28;20124;-60
2022/12/02 05:54:39;;;;;;;39.05;14.38;;;3.80;99.90;;;;;;5087507;28;20032;-60
2022/12/02 05:57:09;;;;;;;32.78;13.63;;;3.80;99.90;;;;;;5076484;28;20159;-60
2022/12/02 05:59:35;;;;;;;36.97;14.93;;;3.80;99.90;;;;;;5072790;28;20511;-60
2022/12/02 06:02:01;;;;;;;26.55;12.25;;;3.80;99.90;;;;;;5071619;28;20048;-61
2022/12/02 06:04:31;;;;;;;31.38;13.20;;;3.80;99.90;;;;;;5072197;28;20021;-61
2022/12/02 06:07:00;;;;;;;30.63;12.37;;;3.70;99.90;;;;;;5075987;28;20028;-61
2022/12/02 06:09:32;;;;;;;36.25;15.40;;;3.80;99.90;;;;;;5070474;28;20111;-59
2022/12/02 06:11:59;;;;;;;35.05;14.75;;;3.70;99.90;;;;;;5072089;28;20043;-60
2022/12/02 06:14:31;;;;;;;33.55;13.68;;;3.70;99.90;;;;;;5072407;28;20062;-59
2022/12/02 06:17:00;;;;;;;34.10;13.20;;;3.70;99.90;;;;;;5072540;28;20021;-61
2022/12/02 06:19:42;;;;;;;32.17;14.05;;;3.70;99.90;;;;;;5072373;28;20031;-60
2022/12/02 06:22:29;;;;;;;33.38;13.73;;;3.70;99.90;;;;;;5072215;28;20021;-61
2022/12/02 06:24:58;;;;;;;31.75;14.48;;;3.70;99.90;;;;;;5071877;28;20017;-60
2022/12/02 06:27:24;;;;;;;32.60;14.98;;;3.70;99.90;;;;;;5073006;28;20448;-60
2022/12/02 06:29:53;;;;;;;32.42;13.43;;;3.70;99.90;;;;;;5074091;28;20056;-61
2022/12/02 06:32:21;;;;;;;38.38;13.98;;;3.70;99.90;;;;;;5074084;28;20112;-59
2022/12/02 06:34:51;;;;;;;35.60;14.50;;;3.70;99.90;;;;;;5074491;28;20062;-58
2022/12/02 06:37:20;;;;;;;37.65;14.60;;;3.70;99.90;;;;;;5073393;28;20071;-59
2022/12/02 06:39:54;;;;;;;31.58;12.77;;;3.70;99.90;;;;;;5073045;28;20024;-59
2022/12/02 06:42:33;;;;;;;33.80;14.68;;;3.70;99.90;;;;;;5073203;28;20075;-60
2022/12/02 06:45:29;;;;;;;31.80;13.65;;;3.70;99.90;;;;;;5073006;28;20070;-59
2022/12/02 06:48:15;;;;;;;36.38;14.35;;;3.70;99.90;;;;;;5072591;28;20357;-59
2022/12/02 06:50:42;;;;;;;31.60;14.60;;;3.70;99.90;;;;;;5073438;28;20107;-61
2022/12/02 06:53:36;;;;;;;32.00;13.30;;;3.70;99.90;;;;;;5072731;28;20048;-60
2022/12/02 06:56:26;;;;;;;29.17;13.40;;;3.70;99.90;;;;;;5074099;28;20479;-61
2022/12/02 06:59:05;;;;;;;36.53;14.32;;;3.70;99.90;;;;;;5074077;28;20031;-60
2022/12/02 07:01:33;;;;;;;33.13;14.15;;;3.70;99.90;;;;;;5073611;28;20096;-60
2022/12/02 07:04:07;;;;;;;34.40;13.57;;;3.60;99.90;;;;;;5071814;28;20059;-60
2022/12/02 07:06:45;;;;;;;34.10;13.98;;;3.60;99.90;;;;;;5073536;28;20032;-60
2022/12/02 07:09:31;;;;;;;31.15;13.40;;;3.60;99.90;;;;;;5073743;28;20488;-61
2022/12/02 07:11:58;;;;;;;34.65;12.85;;;3.60;99.90;;;;;;5073108;28;20048;-58
2022/12/02 07:14:46;;;;;;;35.33;13.43;;;3.60;99.90;;;;;;5072062;28;20036;-59
2022/12/02 07:17:17;;;;;;;37.90;14.23;;;3.60;99.90;;;;;;5073642;28;20047;-60
2022/12/02 07:19:45;;;;;;;36.22;14.35;;;3.60;99.90;;;;;;5073588;28;20023;-60
2022/12/02 07:22:19;;;;;;;35.55;13.30;;;3.60;99.90;;;;;;5073564;28;20036;-60
2022/12/02 07:25:07;;;;;;;39.97;14.90;;;3.50;99.90;;;;;;5071628;28;20490;-60
2022/12/02 07:27:38;;;;;;;32.60;13.48;;;3.50;99.90;;;;;;5071812;28;20382;-59
2022/12/02 07:30:19;;;;;;;36.05;12.93;;;3.50;99.90;;;;;;5073363;28;20087;-60
2022/12/02 07:32:45;;;;;;;35.47;13.43;;;3.50;99.90;;;;;;5071475;28;20064;-60
2022/12/02 07:35:10;;;;;;;36.63;15.30;;;3.50;99.90;;;;;;5071309;28;20063;-60
2022/12/02 07:37:36;;;;;;;37.35;13.45;;;3.50;99.90;;;;;;5073143;28;20024;-63
2022/12/02 07:40:02;;;;;;;37.92;16.30;;;3.50;99.90;;;;;;5071449;28;20437;-61
2022/12/02 07:42:27;;;;;;;42.35;15.55;;;3.50;99.90;;;;;;5072907;28;20040;-63
2022/12/02 07:44:53;;;;;;;42.72;15.40;;;3.50;99.90;;;;;;5073201;28;20037;-63
2022/12/02 07:47:18;;;;;;;35.00;14.60;;;3.50;99.90;;;;;;5072035;28;20107;-59
2022/12/02 07:49:44;;;;;;;36.42;14.65;;;3.50;99.90;;;;;;5071739;28;20377;-60
2022/12/02 07:52:09;;;;;;;39.17;14.60;;;3.50;99.90;;;;;;5073188;28;20089;-60
2022/12/02 07:54:35;;;;;;;37.75;14.10;;;3.50;99.90;;;;;;5071981;28;20044;-60
2022/12/02 07:57:01;;;;;;;35.65;13.40;;;3.50;99.90;;;;;;5073064;28;20047;-59
2022/12/02 07:59:29;;;;;;;43.85;16.90;;;3.60;99.90;;;;;;5071933;28;20028;-60
2022/12/02 08:01:55;;;;;;;40.35;15.30;;;3.60;99.90;;;;;;5072791;28;20024;-60
2022/12/02 08:04:20;;;;;;;42.88;14.32;;;3.60;99.90;;;;;;5072464;28;20028;-60
2022/12/02 08:06:46;;;;;;;42.00;14.88;;;3.60;99.90;;;;;;5072068;28;20533;-60
2022/12/02 08:09:11;;;;;;;41.22;14.32;;;3.60;99.90;;;;;;5072598;28;20103;-60
2022/12/02 08:11:37;;;;;;;38.60;16.00;;;3.60;99.90;;;;;;5072047;28;20102;-58
2022/12/02 08:14:03;;;;;;;41.45;15.48;;;3.60;99.90;;;;;;5072092;28;20039;-60
2022/12/02 08:16:29;;;;;;;40.63;13.95;;;3.60;99.90;;;;;;5072364;28;20512;-61
2022/12/02 08:18:54;;;;;;;40.97;14.73;;;3.60;99.90;;;;;;5072806;28;20085;-60
2022/12/02 08:21:20;;;;;;;40.35;15.68;;;3.60;99.90;;;;;;5071602;28;20403;-60
2022/12/02 08:23:46;;;;;;;44.92;17.55;;;3.60;99.90;;;;;;5072746;28;20426;-59
2022/12/02 08:26:12;;;;;;;39.13;15.45;;;3.60;99.90;;;;;;5072517;28;20020;-61
2022/12/02 08:28:37;;;;;;;51.08;16.38;;;3.60;99.90;;;;;;5071523;28;20029;-59
2022/12/02 08:31:03;;;;;;;45.47;16.55;;;3.60;99.90;;;;;;5071173;28;20035;-58
2022/12/02 08:33:28;;;;;;;47.95;16.63;;;3.60;99.90;;;;;;5071927;28;20040;-60
2022/12/02 08:35:54;;;;;;;45.88;16.35;;;3.60;99.90;;;;;;5071772;28;20027;-60
2022/12/02 08:38:19;;;;;;;48.78;15.57;;;3.60;99.90;;;;;;5072100;28;20024;-59
2022/12/02 08:40:45;;;;;;;43.85;16.88;;;3.70;99.90;;;;;;5072510;28;20013;-57
2022/12/02 08:43:11;;;;;;;40.28;15.73;;;3.60;99.90;;;;;;5071665;28;20429;-61
2022/12/02 08:45:36;;;;;;;49.83;16.75;;;3.70;99.90;;;;;;5073467;28;20037;-59
2022/12/02 08:48:02;;;;;;;45.75;15.55;;;3.70;99.90;;;;;;5076405;28;20029;-60
2022/12/02 08:50:27;;;;;;;44.63;16.88;;;3.70;99.90;;;;;;5075397;28;20020;-59
2022/12/02 08:52:53;;;;;;;38.42;15.90;;;3.70;99.90;;;;;;5076431;28;20037;-60
2022/12/02 08:55:19;;;;;;;49.80;16.42;;;3.70;99.90;;;;;;5076306;28;20036;-59
2022/12/02 08:57:44;;;;;;;41.63;14.30;;;3.70;99.90;;;;;;5075672;28;20464;-60
2022/12/02 09:00:10;;;;;;;37.88;14.68;;;3.70;99.90;;;;;;5076461;28;20021;-59
2022/12/02 09:02:36;;;;;;;43.13;15.55;;;3.70;99.90;;;;;;5075798;28;20051;-58
2022/12/02 09:05:03;;;;;;;44.72;15.18;;;3.70;99.90;;;;;;5075384;28;20453;-60
2022/12/02 09:07:28;;;;;;;42.63;15.48;;;3.70;99.90;;;;;;5074375;28;20422;-59
2022/12/02 09:09:54;;;;;;;43.42;15.80;;;3.80;99.90;;;;;;5075396;28;20050;-59
2022/12/02 09:12:20;;;;;;;39.35;15.98;;;3.80;99.90;;;;;;5075501;28;20075;-60
2022/12/02 09:14:45;;;;;;;48.20;15.23;;;3.80;99.90;;;;;;5075816;28;20036;-59
2022/12/02 09:17:11;;;;;;;42.00;15.02;;;3.80;99.90;;;;;;5075204;28;20025;-60
2022/12/02 09:19:36;;;;;;;41.45;16.27;;;3.90;99.90;;;;;;5075527;28;20387;-61
2022/12/02 09:22:02;;;;;;;38.30;15.05;;;3.90;99.90;;;;;;5076017;28;20024;-60
2022/12/02 09:24:28;;;;;;;41.95;15.10;;;3.90;99.90;;;;;;5073514;28;20020;-59
2022/12/02 09:26:53;;;;;;;43.15;15.77;;;3.90;99.90;;;;;;5075973;28;20472;-59
2022/12/02 09:29:19;;;;;;;42.53;15.38;;;3.90;99.90;;;;;;5075393;28;20059;-58
2022/12/02 09:31:44;;;;;;;46.35;14.73;;;4.00;99.90;;;;;;5074869;28;20043;-60
2022/12/02 09:34:10;;;;;;;45.20;14.75;;;4.00;99.90;;;;;;5075359;28;20120;-60
2022/12/02 09:36:35;;;;;;;46.38;15.63;;;4.00;99.90;;;;;;5075171;28;20070;-61
2022/12/02 09:39:01;;;;;;;40.42;15.10;;;4.00;99.90;;;;;;5074884;28;20028;-60
2022/12/02 09:41:27;;;;;;;33.20;14.30;;;4.00;99.90;;;;;;5075354;28;20052;-59
2022/12/02 09:43:53;;;;;;;42.40;14.98;;;4.00;99.90;;;;;;5075080;28;20078;-58
2022/12/02 09:46:19;;;;;;;37.65;12.98;;;4.00;99.90;;;;;;5074398;28;20095;-60
2022/12/02 09:48:44;;;;;;;37.13;14.00;;;4.00;99.90;;;;;;5073979;28;20450;-59
2022/12/02 09:51:10;;;;;;;41.92;14.90;;;4.00;99.90;;;;;;5075239;28;20028;-58
2022/12/02 09:53:39;;;;;;;40.00;12.77;;;4.00;99.90;;;;;;5074006;28;20119;-60
2022/12/02 09:56:08;;;;;;;39.00;14.00;;;4.10;99.90;;;;;;5075110;28;20009;-60
2022/12/02 09:58:33;;;;;;;37.63;14.50;;;4.10;99.90;;;;;;5073940;28;20099;-59
2022/12/02 10:00:59;;;;;;;33.38;13.73;;;4.10;99.90;;;;;;5073344;28;20035;-61
2022/12/02 10:03:27;;;;;;;36.97;14.23;;;4.20;99.90;;;;;;5074676;28;20079;-58
2022/12/02 10:05:53;;;;;;;37.72;13.45;;;4.20;99.90;;;;;;5073770;28;20048;-57
2022/12/02 10:08:23;;;;;;;37.75;14.18;;;4.20;99.90;;;;;;5074131;28;20025;-60
2022/12/02 10:10:49;;;;;;;42.53;13.65;;;4.20;99.90;;;;;;5074947;28;20055;-60
2022/12/02 10:13:17;;;;;;;31.98;13.98;;;4.20;99.90;;;;;;5072626;28;20076;-59
2022/12/02 10:15:43;;;;;;;32.08;13.52;;;4.30;99.90;;;;;;5074871;28;20040;-59
2022/12/02 10:18:16;;;;;;;35.88;13.25;;;4.20;99.90;;;;;;5074768;28;20075;-60
2022/12/02 10:20:42;;;;;;;33.47;12.95;;;4.20;99.90;;;;;;5074147;28;20103;-59
2022/12/02 10:23:11;;;;;;;37.40;12.55;;;4.10;99.90;;;;;;5074725;28;20116;-62
2022/12/02 10:25:39;;;;;;;33.72;12.20;;;4.10;99.90;;;;;;5074332;28;20104;-61
2022/12/02 10:28:26;;;;;;;34.40;11.75;;;4.10;99.90;;;;;;5073828;28;20040;-57
2022/12/02 10:30:56;;;;;;;28.30;11.85;;;4.00;99.90;;;;;;5071079;28;20389;-58
2022/12/02 10:33:24;;;;;;;35.83;13.40;;;4.00;99.90;;;;;;5090585;28;20028;-57
2022/12/02 10:35:51;;;;;;;35.50;13.27;;;3.80;99.90;;;;;;5087010;28;20063;-56
2022/12/02 10:38:37;;;;;;;37.42;13.45;;;3.80;99.90;;;;;;5072048;28;20078;-56
2022/12/02 10:41:14;;;;;;;42.03;12.88;;;3.80;99.90;;;;;;5070967;28;20474;-59
2022/12/02 10:43:42;;;;;;;31.10;12.05;;;3.80;99.90;;;;;;5071558;28;20032;-60
2022/12/02 10:46:10;;;;;;;37.00;13.00;;;3.70;99.90;;;;;;5071546;28;20097;-57
2022/12/02 10:48:36;;;;;;;28.23;11.02;;;3.80;99.90;;;;;;5072019;28;20229;-57
2022/12/02 10:51:02;;;;;;;36.92;14.13;;;3.80;99.90;;;;;;5072625;28;20388;-61
2022/12/02 10:53:29;;;;;;;37.25;13.27;;;3.80;99.90;;;;;;5071836;28;20032;-58
2022/12/02 10:55:55;;;;;;;39.35;13.18;;;3.80;99.90;;;;;;5072780;28;20028;-58
2022/12/02 10:58:29;;;;;;;37.30;13.50;;;3.70;99.90;;;;;;5072148;28;20021;-57
2022/12/02 11:00:56;;;;;;;35.28;12.40;;;3.70;99.90;;;;;;5072505;28;20427;-57
2022/12/02 11:03:22;;;;;;;35.33;12.02;;;3.70;99.90;;;;;;5072063;28;20024;-60
2022/12/02 11:05:48;;;;;;;32.05;13.02;;;3.70;99.90;;;;;;5073255;28;20016;-59
2022/12/02 11:08:27;;;;;;;37.42;14.43;;;3.70;99.90;;;;;;5072872;28;20456;-56
2022/12/02 11:11:25;;;;;;;34.20;12.35;;;3.70;99.90;;;;;;5072171;28;20031;-59
2022/12/02 11:13:51;;;;;;;32.67;11.95;;;3.80;99.90;;;;;;5016913;28;20570;-60
2022/12/02 11:16:28;;;;;;;36.35;12.18;;;3.80;99.90;;;;;;5072660;28;20052;-57
2022/12/02 11:19:07;;;;;;;39.40;14.10;;;3.80;99.90;;;;;;5072066;28;20166;-59
2022/12/02 11:21:36;;;;;;;38.65;13.25;;;3.70;99.90;;;;;;5072306;28;20404;-59
2022/12/02 11:24:25;;;;;;;35.53;13.15;;;3.70;99.90;;;;;;5072350;28;20485;-57
2022/12/02 11:26:59;;;;;;;41.50;13.70;;;3.70;99.90;;;;;;5092993;28;20020;-59
2022/12/02 11:29:32;;;;;;;45.70;13.02;;;3.80;99.90;;;;;;5092150;28;20062;-59
2022/12/02 11:32:03;;;;;;;50.88;14.75;;;3.80;99.90;;;;;;5091913;28;20028;-61
2022/12/02 11:34:52;;;;;;;39.47;13.73;;;3.70;99.90;;;;;;5092370;28;20035;-61
2022/12/02 11:37:34;;;;;;;49.05;15.32;;;3.80;99.90;;;;;;5081946;28;20036;-62
2022/12/02 11:40:06;;;;;;;34.38;13.27;;;3.80;99.90;;;;;;5092835;28;20078;-61
2022/12/02 11:42:34;;;;;;;31.45;11.65;;;3.90;99.90;;;;;;5092573;28;20063;-58
2022/12/02 11:45:15;;;;;;;35.63;13.38;;;4.00;99.90;;;;;;5091902;28;20102;-60
2022/12/02 11:47:52;;;;;;;32.08;12.50;;;4.00;99.90;;;;;;5092039;28;20055;-59
2022/12/02 11:50:27;;;;;;;35.83;12.80;;;4.20;99.90;;;;;;5091519;28;20402;-61
2022/12/02 11:53:00;;;;;;;37.15;12.90;;;4.30;99.90;;;;;;5091497;28;20074;-63
2022/12/02 11:55:38;;;;;;;37.85;13.20;;;4.40;99.90;;;;;;5079246;28;20055;-60
2022/12/02 11:58:16;;;;;;;34.47;13.02;;;4.50;99.90;;;;;;5070683;28;20028;-59
2022/12/02 12:01:06;;;;;;;27.10;9.90;;;4.60;99.90;;;;;;5071482;28;20480;-60
2022/12/02 12:03:32;;;;;;;33.83;13.18;;;4.70;99.90;;;;;;5071746;28;20108;-58
2022/12/02 12:06:09;;;;;;;36.75;12.90;;;4.80;99.90;;;;;;5071762;28;20028;-56
2022/12/02 12:08:41;;;;;;;39.97;15.23;;;4.80;99.90;;;;;;5071523;28;20029;-58
2022/12/02 12:11:24;;;;;;;35.63;12.05;;;4.70;99.90;;;;;;5072054;28;20346;-54
2022/12/02 12:14:02;;;;;;;32.00;11.35;;;4.70;99.90;;;;;;5071020;28;20043;-57
2022/12/02 12:16:32;;;;;;;32.10;10.88;;;4.60;99.90;;;;;;5071457;28;20498;-55
2022/12/02 12:19:00;;;;;;;30.15;11.23;;;4.50;99.90;;;;;;5071686;28;20025;-59
2022/12/02 12:21:32;;;;;;;29.50;10.98;;;4.50;99.90;;;;;;5069063;28;20031;-59
2022/12/02 12:24:16;;;;;;;21.13;9.75;;;4.50;99.90;;;;;;5072258;28;20025;-60
2022/12/02 12:26:49;;;;;;;30.27;11.02;;;4.50;99.90;;;;;;5091401;28;20095;-60
2022/12/02 12:29:18;;;;;;;26.08;9.65;;;4.40;99.90;;;;;;5091750;28;20107;-59
2022/12/02 12:31:49;;;;;;;25.85;9.65;;;4.40;99.90;;;;;;5091902;28;20032;-61
2022/12/02 12:34:15;;;;;;;25.02;9.82;;;4.40;99.90;;;;;;5091160;28;20062;-55
2022/12/02 12:36:42;;;;;;;27.02;9.55;;;4.40;99.90;;;;;;5091995;28;20468;-61
2022/12/02 12:39:08;;;;;;;21.67;9.63;;;4.30;99.90;;;;;;5090784;28;20432;-59
2022/12/02 12:41:34;;;;;;;25.13;9.15;;;4.30;99.90;;;;;;5091444;28;20472;-57
2022/12/02 12:43:59;;;;;;;28.27;11.02;;;4.20;99.90;;;;;;5091966;28;20036;-59
2022/12/02 12:46:25;;;;;;;26.25;9.75;;;4.10;99.90;;;;;;5090837;28;20079;-61
2022/12/02 12:48:50;;;;;;;24.40;9.15;;;4.10;99.90;;;;;;5090451;28;20028;-60